sensor_id;sensor_type;location;lat;lon;timestamp;P1;durP1;ratioP1;P2;durP2;ratioP2
18090;SDS011;9172;49.948;9.208;2023-05-07T00:00:05;1.97;;;1.30;;
18090;SDS011;9172;49.948;9.208;2023-05-07T00:02:35;3.50;;;1.60;;
18090;SDS011;9172;49.948;9.208;2023-05-07T00:05:05;1.80;;;1.30;;
18090;SDS011;9172;49.948;9.208;2023-05-07T00:07:35;1.83;;;1.30;;
18090;SDS011;9172;49.948;9.208;2023-05-07T00:10:05;2.07;;;1.43;;
18090;SDS011;9172;49.948;9.208;2023-05-07T00:12:35;3.17;;;1.80;;
18090;SDS011;9172;49.948;9.208;2023-05-07T00:15:04;3.27;;;1.80;;
18090;SDS011;9172;49.948;9.208;2023-05-07T00:17:34;2.30;;;1.60;;
18090;SDS011;9172;49.948;9.208;2023-05-07T00:20:04;3.53;;;1.60;;
18090;SDS011;9172;49.948;9.208;2023-05-07T00:22:35;4.53;;;1.70;;
18090;SDS011;9172;49.948;9.208;2023-05-07T00:25:04;1.73;;;1.20;;
18090;SDS011;9172;49.948;9.208;2023-05-07T00:27:33;4.60;;;1.70;;
18090;SDS011;9172;49.948;9.208;2023-05-07T00:30:02;3.97;;;1.50;;
18090;SDS011;9172;49.948;9.208;2023-05-07T00:32:34;2.17;;;1.33;;
18090;SDS011;9172;49.948;9.208;2023-05-07T00:35:05;2.20;;;1.30;;
18090;SDS011;9172;49.948;9.208;2023-05-07T00:37:36;1.87;;;1.10;;
18090;SDS011;9172;49.948;9.208;2023-05-07T00:40:06;2.13;;;1.50;;
18090;SDS011;9172;49.948;9.208;2023-05-07T00:42:35;2.67;;;1.17;;
18090;SDS011;9172;49.948;9.208;2023-05-07T00:45:04;2.57;;;1.30;;
18090;SDS011;9172;49.948;9.208;2023-05-07T00:47:35;1.47;;;1.10;;
18090;SDS011;9172;49.948;9.208;2023-05-07T00:50:06;13.80;;;3.03;;
18090;SDS011;9172;49.948;9.208;2023-05-07T00:52:36;2.40;;;1.27;;
18090;SDS011;9172;49.948;9.208;2023-05-07T00:55:07;1.20;;;1.10;;
18090;SDS011;9172;49.948;9.208;2023-05-07T00:57:45;2.30;;;1.50;;
18090;SDS011;9172;49.948;9.208;2023-05-07T01:00:14;1.63;;;1.30;;
18090;SDS011;9172;49.948;9.208;2023-05-07T01:02:44;5.27;;;1.60;;
18090;SDS011;9172;49.948;9.208;2023-05-07T01:05:14;1.93;;;1.23;;
18090;SDS011;9172;49.948;9.208;2023-05-07T01:07:44;1.63;;;1.20;;
18090;SDS011;9172;49.948;9.208;2023-05-07T01:10:14;3.50;;;1.20;;
18090;SDS011;9172;49.948;9.208;2023-05-07T01:12:44;2.67;;;1.20;;
18090;SDS011;9172;49.948;9.208;2023-05-07T01:15:13;2.23;;;1.37;;
18090;SDS011;9172;49.948;9.208;2023-05-07T01:17:42;2.70;;;1.10;;
18090;SDS011;9172;49.948;9.208;2023-05-07T01:20:11;2.13;;;1.37;;
18090;SDS011;9172;49.948;9.208;2023-05-07T01:22:40;1.67;;;1.10;;
18090;SDS011;9172;49.948;9.208;2023-05-07T01:25:10;2.30;;;1.20;;
18090;SDS011;9172;49.948;9.208;2023-05-07T01:27:43;6.80;;;1.40;;
18090;SDS011;9172;49.948;9.208;2023-05-07T01:30:12;1.87;;;1.17;;
18090;SDS011;9172;49.948;9.208;2023-05-07T01:32:42;1.40;;;1.13;;
18090;SDS011;9172;49.948;9.208;2023-05-07T01:35:18;5.10;;;1.60;;
18090;SDS011;9172;49.948;9.208;2023-05-07T01:37:45;4.93;;;1.27;;
18090;SDS011;9172;49.948;9.208;2023-05-07T01:40:15;3.67;;;1.40;;
18090;SDS011;9172;49.948;9.208;2023-05-07T01:42:45;3.93;;;1.37;;
18090;SDS011;9172;49.948;9.208;2023-05-07T01:45:15;4.37;;;1.10;;
18090;SDS011;9172;49.948;9.208;2023-05-07T01:47:43;2.63;;;1.33;;
18090;SDS011;9172;49.948;9.208;2023-05-07T01:50:14;1.37;;;1.00;;
18090;SDS011;9172;49.948;9.208;2023-05-07T01:52:45;3.53;;;1.40;;
18090;SDS011;9172;49.948;9.208;2023-05-07T01:55:14;2.33;;;1.50;;
18090;SDS011;9172;49.948;9.208;2023-05-07T01:57:42;2.73;;;1.17;;
18090;SDS011;9172;49.948;9.208;2023-05-07T02:00:13;0.90;;;0.87;;
18090;SDS011;9172;49.948;9.208;2023-05-07T02:02:44;2.23;;;1.17;;
18090;SDS011;9172;49.948;9.208;2023-05-07T02:05:14;1.83;;;1.20;;
18090;SDS011;9172;49.948;9.208;2023-05-07T02:07:42;2.97;;;1.33;;
18090;SDS011;9172;49.948;9.208;2023-05-07T02:10:12;2.57;;;1.23;;
18090;SDS011;9172;49.948;9.208;2023-05-07T02:12:40;1.10;;;1.00;;
18090;SDS011;9172;49.948;9.208;2023-05-07T02:15:10;3.83;;;1.37;;
18090;SDS011;9172;49.948;9.208;2023-05-07T02:17:39;2.87;;;1.40;;
18090;SDS011;9172;49.948;9.208;2023-05-07T02:20:26;2.53;;;1.37;;
18090;SDS011;9172;49.948;9.208;2023-05-07T02:22:56;1.53;;;1.23;;
18090;SDS011;9172;49.948;9.208;2023-05-07T02:25:26;3.10;;;1.10;;
18090;SDS011;9172;49.948;9.208;2023-05-07T02:27:56;2.50;;;1.33;;
18090;SDS011;9172;49.948;9.208;2023-05-07T02:30:24;1.83;;;1.27;;
18090;SDS011;9172;49.948;9.208;2023-05-07T02:32:54;1.77;;;1.20;;
18090;SDS011;9172;49.948;9.208;2023-05-07T02:35:22;2.57;;;1.57;;
18090;SDS011;9172;49.948;9.208;2023-05-07T02:37:52;1.80;;;1.33;;
18090;SDS011;9172;49.948;9.208;2023-05-07T02:40:21;1.70;;;1.20;;
18090;SDS011;9172;49.948;9.208;2023-05-07T02:42:50;4.23;;;1.33;;
18090;SDS011;9172;49.948;9.208;2023-05-07T02:45:19;3.57;;;1.20;;
18090;SDS011;9172;49.948;9.208;2023-05-07T02:47:48;2.63;;;1.37;;
18090;SDS011;9172;49.948;9.208;2023-05-07T02:50:18;2.10;;;1.20;;
18090;SDS011;9172;49.948;9.208;2023-05-07T02:52:47;1.50;;;1.17;;
18090;SDS011;9172;49.948;9.208;2023-05-07T02:55:16;3.40;;;1.47;;
18090;SDS011;9172;49.948;9.208;2023-05-07T02:57:45;5.57;;;1.40;;
18090;SDS011;9172;49.948;9.208;2023-05-07T03:00:15;3.00;;;1.77;;
18090;SDS011;9172;49.948;9.208;2023-05-07T03:02:47;4.83;;;1.33;;
18090;SDS011;9172;49.948;9.208;2023-05-07T03:05:15;1.30;;;1.13;;
18090;SDS011;9172;49.948;9.208;2023-05-07T03:07:45;2.17;;;1.30;;
18090;SDS011;9172;49.948;9.208;2023-05-07T03:10:13;4.07;;;1.53;;
18090;SDS011;9172;49.948;9.208;2023-05-07T03:12:42;2.40;;;1.30;;
18090;SDS011;9172;49.948;9.208;2023-05-07T03:15:11;2.60;;;1.60;;
18090;SDS011;9172;49.948;9.208;2023-05-07T03:17:40;2.67;;;1.47;;
18090;SDS011;9172;49.948;9.208;2023-05-07T03:20:10;1.63;;;1.30;;
18090;SDS011;9172;49.948;9.208;2023-05-07T03:22:39;2.87;;;1.70;;
18090;SDS011;9172;49.948;9.208;2023-05-07T03:25:08;1.90;;;1.47;;
18090;SDS011;9172;49.948;9.208;2023-05-07T03:27:37;1.77;;;1.40;;
18090;SDS011;9172;49.948;9.208;2023-05-07T03:30:07;2.37;;;1.60;;
18090;SDS011;9172;49.948;9.208;2023-05-07T03:32:37;4.27;;;1.50;;
18090;SDS011;9172;49.948;9.208;2023-05-07T03:35:06;2.47;;;1.50;;
18090;SDS011;9172;49.948;9.208;2023-05-07T03:37:34;2.83;;;1.80;;
18090;SDS011;9172;49.948;9.208;2023-05-07T03:40:04;1.93;;;1.50;;
18090;SDS011;9172;49.948;9.208;2023-05-07T03:42:35;2.63;;;1.50;;
18090;SDS011;9172;49.948;9.208;2023-05-07T03:45:05;2.30;;;1.80;;
18090;SDS011;9172;49.948;9.208;2023-05-07T03:47:36;2.20;;;1.60;;
18090;SDS011;9172;49.948;9.208;2023-05-07T03:50:05;3.47;;;2.30;;
18090;SDS011;9172;49.948;9.208;2023-05-07T03:52:34;4.17;;;1.90;;
18090;SDS011;9172;49.948;9.208;2023-05-07T03:55:03;4.40;;;1.73;;
18090;SDS011;9172;49.948;9.208;2023-05-07T03:57:33;5.07;;;1.90;;
18090;SDS011;9172;49.948;9.208;2023-05-07T04:00:02;3.17;;;1.77;;
18090;SDS011;9172;49.948;9.208;2023-05-07T04:02:33;3.40;;;1.70;;
18090;SDS011;9172;49.948;9.208;2023-05-07T04:05:03;2.27;;;1.50;;
18090;SDS011;9172;49.948;9.208;2023-05-07T04:07:32;3.20;;;1.80;;
18090;SDS011;9172;49.948;9.208;2023-05-07T04:10:00;8.40;;;1.80;;
18090;SDS011;9172;49.948;9.208;2023-05-07T04:12:29;3.17;;;1.83;;
18090;SDS011;9172;49.948;9.208;2023-05-07T04:14:59;2.23;;;1.70;;
18090;SDS011;9172;49.948;9.208;2023-05-07T04:17:29;2.60;;;1.73;;
18090;SDS011;9172;49.948;9.208;2023-05-07T04:19:59;2.00;;;1.77;;
18090;SDS011;9172;49.948;9.208;2023-05-07T04:22:28;3.00;;;2.20;;
18090;SDS011;9172;49.948;9.208;2023-05-07T04:24:57;2.97;;;1.90;;
18090;SDS011;9172;49.948;9.208;2023-05-07T04:27:26;3.43;;;1.90;;
18090;SDS011;9172;49.948;9.208;2023-05-07T04:29:55;3.90;;;2.20;;
18090;SDS011;9172;49.948;9.208;2023-05-07T04:32:26;4.27;;;2.10;;
18090;SDS011;9172;49.948;9.208;2023-05-07T04:34:56;3.57;;;2.50;;
18090;SDS011;9172;49.948;9.208;2023-05-07T04:37:25;2.50;;;1.97;;
18090;SDS011;9172;49.948;9.208;2023-05-07T04:39:54;2.90;;;2.20;;
18090;SDS011;9172;49.948;9.208;2023-05-07T04:42:23;3.23;;;1.93;;
18090;SDS011;9172;49.948;9.208;2023-05-07T04:44:53;4.10;;;2.43;;
18090;SDS011;9172;49.948;9.208;2023-05-07T04:47:22;7.23;;;2.27;;
18090;SDS011;9172;49.948;9.208;2023-05-07T04:49:50;2.67;;;2.20;;
18090;SDS011;9172;49.948;9.208;2023-05-07T04:52:19;3.90;;;2.50;;
18090;SDS011;9172;49.948;9.208;2023-05-07T04:54:48;2.43;;;2.10;;
18090;SDS011;9172;49.948;9.208;2023-05-07T04:57:17;3.27;;;2.20;;
18090;SDS011;9172;49.948;9.208;2023-05-07T04:59:46;4.87;;;2.70;;
18090;SDS011;9172;49.948;9.208;2023-05-07T05:02:15;2.60;;;2.03;;
18090;SDS011;9172;49.948;9.208;2023-05-07T05:04:43;3.37;;;2.67;;
18090;SDS011;9172;49.948;9.208;2023-05-07T05:07:12;4.27;;;2.20;;
18090;SDS011;9172;49.948;9.208;2023-05-07T05:09:41;6.13;;;2.53;;
18090;SDS011;9172;49.948;9.208;2023-05-07T05:12:09;2.53;;;2.10;;
18090;SDS011;9172;49.948;9.208;2023-05-07T05:14:39;7.60;;;2.60;;
18090;SDS011;9172;49.948;9.208;2023-05-07T05:17:07;3.63;;;2.20;;
18090;SDS011;9172;49.948;9.208;2023-05-07T05:19:36;3.10;;;2.07;;
18090;SDS011;9172;49.948;9.208;2023-05-07T05:22:06;3.50;;;2.47;;
18090;SDS011;9172;49.948;9.208;2023-05-07T05:24:35;6.33;;;2.63;;
18090;SDS011;9172;49.948;9.208;2023-05-07T05:27:04;5.93;;;2.60;;
18090;SDS011;9172;49.948;9.208;2023-05-07T05:29:32;3.17;;;2.40;;
18090;SDS011;9172;49.948;9.208;2023-05-07T05:32:02;4.17;;;2.20;;
18090;SDS011;9172;49.948;9.208;2023-05-07T05:34:31;3.40;;;2.50;;
18090;SDS011;9172;49.948;9.208;2023-05-07T05:37:00;5.50;;;2.20;;
18090;SDS011;9172;49.948;9.208;2023-05-07T05:39:29;3.93;;;2.60;;
18090;SDS011;9172;49.948;9.208;2023-05-07T05:41:58;5.30;;;2.70;;
18090;SDS011;9172;49.948;9.208;2023-05-07T05:44:27;3.50;;;2.53;;
18090;SDS011;9172;49.948;9.208;2023-05-07T05:46:56;4.97;;;2.83;;
18090;SDS011;9172;49.948;9.208;2023-05-07T05:49:25;5.30;;;2.60;;
18090;SDS011;9172;49.948;9.208;2023-05-07T05:51:54;6.60;;;2.47;;
18090;SDS011;9172;49.948;9.208;2023-05-07T05:54:22;3.67;;;2.13;;
18090;SDS011;9172;49.948;9.208;2023-05-07T05:56:52;3.70;;;2.33;;
18090;SDS011;9172;49.948;9.208;2023-05-07T05:59:22;4.23;;;2.77;;
18090;SDS011;9172;49.948;9.208;2023-05-07T06:01:52;3.30;;;2.50;;
18090;SDS011;9172;49.948;9.208;2023-05-07T06:04:22;3.47;;;2.50;;
18090;SDS011;9172;49.948;9.208;2023-05-07T06:06:51;6.00;;;2.70;;
18090;SDS011;9172;49.948;9.208;2023-05-07T06:09:22;5.27;;;2.80;;
18090;SDS011;9172;49.948;9.208;2023-05-07T06:11:52;3.37;;;2.60;;
18090;SDS011;9172;49.948;9.208;2023-05-07T06:14:21;3.00;;;2.40;;
18090;SDS011;9172;49.948;9.208;2023-05-07T06:16:50;4.83;;;2.77;;
18090;SDS011;9172;49.948;9.208;2023-05-07T06:19:19;4.27;;;3.83;;
18090;SDS011;9172;49.948;9.208;2023-05-07T06:21:49;3.47;;;2.70;;
18090;SDS011;9172;49.948;9.208;2023-05-07T06:24:17;4.17;;;2.80;;
18090;SDS011;9172;49.948;9.208;2023-05-07T06:26:47;3.80;;;2.43;;
18090;SDS011;9172;49.948;9.208;2023-05-07T06:29:15;4.57;;;2.97;;
18090;SDS011;9172;49.948;9.208;2023-05-07T06:31:44;6.57;;;2.77;;
18090;SDS011;9172;49.948;9.208;2023-05-07T06:34:13;8.03;;;2.73;;
18090;SDS011;9172;49.948;9.208;2023-05-07T06:36:42;4.53;;;3.10;;
18090;SDS011;9172;49.948;9.208;2023-05-07T06:39:10;7.33;;;3.23;;
18090;SDS011;9172;49.948;9.208;2023-05-07T06:41:39;3.80;;;3.03;;
18090;SDS011;9172;49.948;9.208;2023-05-07T06:44:07;3.43;;;2.73;;
18090;SDS011;9172;49.948;9.208;2023-05-07T06:46:37;6.37;;;3.00;;
18090;SDS011;9172;49.948;9.208;2023-05-07T06:49:05;3.87;;;2.53;;
18090;SDS011;9172;49.948;9.208;2023-05-07T06:51:35;4.87;;;2.77;;
18090;SDS011;9172;49.948;9.208;2023-05-07T06:54:04;3.73;;;2.93;;
18090;SDS011;9172;49.948;9.208;2023-05-07T06:56:34;3.40;;;2.70;;
18090;SDS011;9172;49.948;9.208;2023-05-07T06:59:03;4.97;;;3.27;;
18090;SDS011;9172;49.948;9.208;2023-05-07T07:01:32;2.83;;;2.43;;
18090;SDS011;9172;49.948;9.208;2023-05-07T07:04:00;6.60;;;2.83;;
18090;SDS011;9172;49.948;9.208;2023-05-07T07:06:38;3.67;;;2.80;;
18090;SDS011;9172;49.948;9.208;2023-05-07T07:09:06;5.03;;;3.67;;
18090;SDS011;9172;49.948;9.208;2023-05-07T07:11:35;4.93;;;3.20;;
18090;SDS011;9172;49.948;9.208;2023-05-07T07:14:04;3.17;;;2.73;;
18090;SDS011;9172;49.948;9.208;2023-05-07T07:16:33;4.53;;;3.20;;
18090;SDS011;9172;49.948;9.208;2023-05-07T07:19:02;3.33;;;2.87;;
18090;SDS011;9172;49.948;9.208;2023-05-07T07:21:31;3.87;;;2.90;;
18090;SDS011;9172;49.948;9.208;2023-05-07T07:24:01;4.50;;;3.37;;
18090;SDS011;9172;49.948;9.208;2023-05-07T07:26:31;3.77;;;3.00;;
18090;SDS011;9172;49.948;9.208;2023-05-07T07:29:01;5.40;;;3.27;;
18090;SDS011;9172;49.948;9.208;2023-05-07T07:31:32;4.60;;;3.10;;
18090;SDS011;9172;49.948;9.208;2023-05-07T07:34:01;6.17;;;3.47;;
18090;SDS011;9172;49.948;9.208;2023-05-07T07:36:31;4.23;;;2.97;;
18090;SDS011;9172;49.948;9.208;2023-05-07T07:39:00;4.53;;;2.83;;
18090;SDS011;9172;49.948;9.208;2023-05-07T07:41:29;4.70;;;3.03;;
18090;SDS011;9172;49.948;9.208;2023-05-07T07:44:00;4.93;;;2.83;;
18090;SDS011;9172;49.948;9.208;2023-05-07T07:46:32;3.83;;;3.03;;
18090;SDS011;9172;49.948;9.208;2023-05-07T07:51:37;7.33;;;3.33;;
18090;SDS011;9172;49.948;9.208;2023-05-07T07:54:06;6.93;;;3.37;;
18090;SDS011;9172;49.948;9.208;2023-05-07T07:56:36;3.33;;;2.83;;
18090;SDS011;9172;49.948;9.208;2023-05-07T07:59:05;3.60;;;2.97;;
18090;SDS011;9172;49.948;9.208;2023-05-07T08:01:33;6.90;;;2.93;;
18090;SDS011;9172;49.948;9.208;2023-05-07T08:04:02;4.90;;;2.53;;
18090;SDS011;9172;49.948;9.208;2023-05-07T08:06:32;3.53;;;3.07;;
18090;SDS011;9172;49.948;9.208;2023-05-07T08:09:02;4.60;;;2.87;;
18090;SDS011;9172;49.948;9.208;2023-05-07T08:11:30;6.13;;;2.93;;
18090;SDS011;9172;49.948;9.208;2023-05-07T08:13:59;4.03;;;2.97;;
18090;SDS011;9172;49.948;9.208;2023-05-07T08:16:29;6.00;;;2.83;;
18090;SDS011;9172;49.948;9.208;2023-05-07T08:18:58;5.03;;;2.80;;
18090;SDS011;9172;49.948;9.208;2023-05-07T08:21:27;4.63;;;3.00;;
18090;SDS011;9172;49.948;9.208;2023-05-07T08:23:57;5.17;;;2.50;;
18090;SDS011;9172;49.948;9.208;2023-05-07T08:26:28;5.10;;;2.87;;
18090;SDS011;9172;49.948;9.208;2023-05-07T08:28:57;3.30;;;2.80;;
18090;SDS011;9172;49.948;9.208;2023-05-07T08:31:26;4.17;;;2.97;;
18090;SDS011;9172;49.948;9.208;2023-05-07T08:33:55;3.90;;;2.80;;
18090;SDS011;9172;49.948;9.208;2023-05-07T08:36:24;4.67;;;2.90;;
18090;SDS011;9172;49.948;9.208;2023-05-07T08:38:53;4.10;;;2.60;;
18090;SDS011;9172;49.948;9.208;2023-05-07T08:41:22;3.83;;;2.80;;
18090;SDS011;9172;49.948;9.208;2023-05-07T08:43:52;6.00;;;2.80;;
18090;SDS011;9172;49.948;9.208;2023-05-07T08:46:24;5.23;;;3.27;;
18090;SDS011;9172;49.948;9.208;2023-05-07T08:48:55;5.20;;;2.70;;
18090;SDS011;9172;49.948;9.208;2023-05-07T08:54:01;6.10;;;3.13;;
18090;SDS011;9172;49.948;9.208;2023-05-07T08:56:32;5.00;;;2.80;;
18090;SDS011;9172;49.948;9.208;2023-05-07T08:59:01;5.53;;;3.10;;
18090;SDS011;9172;49.948;9.208;2023-05-07T09:01:30;4.33;;;3.27;;
18090;SDS011;9172;49.948;9.208;2023-05-07T09:04:01;4.53;;;3.03;;
18090;SDS011;9172;49.948;9.208;2023-05-07T09:06:31;4.00;;;3.20;;
18090;SDS011;9172;49.948;9.208;2023-05-07T09:09:01;5.07;;;2.80;;
18090;SDS011;9172;49.948;9.208;2023-05-07T09:11:31;5.87;;;2.80;;
18090;SDS011;9172;49.948;9.208;2023-05-07T09:14:00;4.23;;;2.40;;
18090;SDS011;9172;49.948;9.208;2023-05-07T09:16:29;3.30;;;3.00;;
18090;SDS011;9172;49.948;9.208;2023-05-07T09:18:58;3.87;;;2.67;;
18090;SDS011;9172;49.948;9.208;2023-05-07T09:21:27;4.07;;;2.60;;
18090;SDS011;9172;49.948;9.208;2023-05-07T09:23:56;5.03;;;2.93;;
18090;SDS011;9172;49.948;9.208;2023-05-07T09:26:26;4.53;;;3.70;;
18090;SDS011;9172;49.948;9.208;2023-05-07T09:28:54;3.90;;;2.80;;
18090;SDS011;9172;49.948;9.208;2023-05-07T09:31:23;4.83;;;2.90;;
18090;SDS011;9172;49.948;9.208;2023-05-07T09:33:52;4.90;;;3.27;;
18090;SDS011;9172;49.948;9.208;2023-05-07T09:36:22;5.30;;;2.93;;
18090;SDS011;9172;49.948;9.208;2023-05-07T09:38:54;3.90;;;3.00;;
18090;SDS011;9172;49.948;9.208;2023-05-07T09:41:24;5.43;;;2.67;;
18090;SDS011;9172;49.948;9.208;2023-05-07T09:43:53;4.23;;;2.70;;
18090;SDS011;9172;49.948;9.208;2023-05-07T09:46:25;3.57;;;2.43;;
18090;SDS011;9172;49.948;9.208;2023-05-07T09:48:57;3.57;;;2.87;;
18090;SDS011;9172;49.948;9.208;2023-05-07T09:51:29;5.33;;;2.90;;
18090;SDS011;9172;49.948;9.208;2023-05-07T09:54:00;4.70;;;2.60;;
18090;SDS011;9172;49.948;9.208;2023-05-07T09:56:31;3.27;;;2.47;;
18090;SDS011;9172;49.948;9.208;2023-05-07T09:59:00;5.77;;;3.40;;
18090;SDS011;9172;49.948;9.208;2023-05-07T10:01:31;3.33;;;2.57;;
18090;SDS011;9172;49.948;9.208;2023-05-07T10:04:01;5.17;;;2.83;;
18090;SDS011;9172;49.948;9.208;2023-05-07T10:06:30;3.00;;;2.40;;
18090;SDS011;9172;49.948;9.208;2023-05-07T10:09:00;3.57;;;2.33;;
18090;SDS011;9172;49.948;9.208;2023-05-07T10:11:29;3.37;;;2.60;;
18090;SDS011;9172;49.948;9.208;2023-05-07T10:13:58;3.93;;;2.47;;
18090;SDS011;9172;49.948;9.208;2023-05-07T10:16:28;4.10;;;3.00;;
18090;SDS011;9172;49.948;9.208;2023-05-07T10:18:58;3.87;;;2.53;;
18090;SDS011;9172;49.948;9.208;2023-05-07T10:21:28;6.37;;;2.67;;
18090;SDS011;9172;49.948;9.208;2023-05-07T10:24:03;5.60;;;2.90;;
18090;SDS011;9172;49.948;9.208;2023-05-07T10:26:35;4.97;;;2.87;;
18090;SDS011;9172;49.948;9.208;2023-05-07T10:29:05;3.90;;;2.70;;
18090;SDS011;9172;49.948;9.208;2023-05-07T10:31:39;4.13;;;2.73;;
18090;SDS011;9172;49.948;9.208;2023-05-07T10:34:19;6.30;;;2.50;;
18090;SDS011;9172;49.948;9.208;2023-05-07T10:36:51;3.53;;;2.70;;
18090;SDS011;9172;49.948;9.208;2023-05-07T10:39:23;4.13;;;2.07;;
18090;SDS011;9172;49.948;9.208;2023-05-07T10:41:53;3.03;;;2.53;;
18090;SDS011;9172;49.948;9.208;2023-05-07T10:44:25;4.30;;;2.43;;
18090;SDS011;9172;49.948;9.208;2023-05-07T10:47:07;3.53;;;2.33;;
18090;SDS011;9172;49.948;9.208;2023-05-07T10:49:38;2.53;;;2.20;;
18090;SDS011;9172;49.948;9.208;2023-05-07T10:52:27;3.53;;;2.30;;
18090;SDS011;9172;49.948;9.208;2023-05-07T10:57:48;3.00;;;2.10;;
18090;SDS011;9172;49.948;9.208;2023-05-07T11:03:10;4.50;;;2.30;;
18090;SDS011;9172;49.948;9.208;2023-05-07T11:05:41;2.83;;;1.90;;
18090;SDS011;9172;49.948;9.208;2023-05-07T11:08:10;4.70;;;1.70;;
18090;SDS011;9172;49.948;9.208;2023-05-07T11:10:48;3.83;;;2.00;;
18090;SDS011;9172;49.948;9.208;2023-05-07T11:16:17;5.37;;;2.77;;
18090;SDS011;9172;49.948;9.208;2023-05-07T11:18:47;5.03;;;2.20;;
18090;SDS011;9172;49.948;9.208;2023-05-07T11:21:32;4.23;;;2.20;;
18090;SDS011;9172;49.948;9.208;2023-05-07T11:24:02;3.17;;;2.10;;
18090;SDS011;9172;49.948;9.208;2023-05-07T11:26:40;2.87;;;1.77;;
18090;SDS011;9172;49.948;9.208;2023-05-07T11:29:15;2.53;;;1.80;;
18090;SDS011;9172;49.948;9.208;2023-05-07T11:31:48;5.07;;;2.07;;
18090;SDS011;9172;49.948;9.208;2023-05-07T11:34:21;5.17;;;2.10;;
18090;SDS011;9172;49.948;9.208;2023-05-07T11:36:51;11.27;;;2.70;;
18090;SDS011;9172;49.948;9.208;2023-05-07T11:39:24;3.33;;;2.27;;
18090;SDS011;9172;49.948;9.208;2023-05-07T11:41:54;5.23;;;2.20;;
18090;SDS011;9172;49.948;9.208;2023-05-07T11:44:22;3.23;;;2.40;;
18090;SDS011;9172;49.948;9.208;2023-05-07T11:46:52;4.80;;;2.40;;
18090;SDS011;9172;49.948;9.208;2023-05-07T11:49:24;3.00;;;2.00;;
18090;SDS011;9172;49.948;9.208;2023-05-07T11:51:52;4.57;;;2.27;;
18090;SDS011;9172;49.948;9.208;2023-05-07T11:54:21;2.27;;;1.73;;
18090;SDS011;9172;49.948;9.208;2023-05-07T11:56:50;2.87;;;1.70;;
18090;SDS011;9172;49.948;9.208;2023-05-07T11:59:20;2.53;;;1.80;;
18090;SDS011;9172;49.948;9.208;2023-05-07T12:01:48;2.33;;;1.60;;
18090;SDS011;9172;49.948;9.208;2023-05-07T12:04:22;2.87;;;1.83;;
18090;SDS011;9172;49.948;9.208;2023-05-07T12:06:54;2.10;;;1.63;;
18090;SDS011;9172;49.948;9.208;2023-05-07T12:09:22;2.73;;;1.77;;
18090;SDS011;9172;49.948;9.208;2023-05-07T12:11:51;3.03;;;2.07;;
18090;SDS011;9172;49.948;9.208;2023-05-07T12:14:26;1.97;;;1.70;;
18090;SDS011;9172;49.948;9.208;2023-05-07T12:16:56;2.40;;;1.43;;
18090;SDS011;9172;49.948;9.208;2023-05-07T12:19:28;4.00;;;1.53;;
18090;SDS011;9172;49.948;9.208;2023-05-07T12:21:57;4.10;;;1.43;;
18090;SDS011;9172;49.948;9.208;2023-05-07T12:24:28;2.50;;;1.67;;
18090;SDS011;9172;49.948;9.208;2023-05-07T12:26:59;4.57;;;1.60;;
18090;SDS011;9172;49.948;9.208;2023-05-07T12:29:28;2.40;;;1.60;;
18090;SDS011;9172;49.948;9.208;2023-05-07T12:31:57;2.40;;;2.03;;
18090;SDS011;9172;49.948;9.208;2023-05-07T12:34:26;2.33;;;1.67;;
18090;SDS011;9172;49.948;9.208;2023-05-07T12:36:55;4.53;;;1.83;;
18090;SDS011;9172;49.948;9.208;2023-05-07T12:39:24;4.03;;;1.80;;
18090;SDS011;9172;49.948;9.208;2023-05-07T12:41:53;3.13;;;1.70;;
18090;SDS011;9172;49.948;9.208;2023-05-07T12:44:22;1.93;;;1.50;;
18090;SDS011;9172;49.948;9.208;2023-05-07T12:46:51;3.83;;;1.63;;
18090;SDS011;9172;49.948;9.208;2023-05-07T12:49:20;2.23;;;1.37;;
18090;SDS011;9172;49.948;9.208;2023-05-07T12:51:49;2.40;;;1.90;;
18090;SDS011;9172;49.948;9.208;2023-05-07T12:54:29;1.90;;;1.30;;
18090;SDS011;9172;49.948;9.208;2023-05-07T12:57:02;1.93;;;1.23;;
18090;SDS011;9172;49.948;9.208;2023-05-07T12:59:33;1.93;;;1.33;;
18090;SDS011;9172;49.948;9.208;2023-05-07T13:02:04;2.13;;;1.77;;
18090;SDS011;9172;49.948;9.208;2023-05-07T13:04:34;1.30;;;1.17;;
18090;SDS011;9172;49.948;9.208;2023-05-07T13:07:02;1.73;;;1.40;;
18090;SDS011;9172;49.948;9.208;2023-05-07T13:09:32;2.37;;;1.30;;
18090;SDS011;9172;49.948;9.208;2023-05-07T13:12:03;2.90;;;1.60;;
18090;SDS011;9172;49.948;9.208;2023-05-07T13:14:33;2.27;;;1.40;;
18090;SDS011;9172;49.948;9.208;2023-05-07T13:17:01;2.63;;;1.30;;
18090;SDS011;9172;49.948;9.208;2023-05-07T13:19:31;2.60;;;1.33;;
18090;SDS011;9172;49.948;9.208;2023-05-07T13:21:59;1.70;;;1.30;;
18090;SDS011;9172;49.948;9.208;2023-05-07T13:24:28;2.87;;;1.70;;
18090;SDS011;9172;49.948;9.208;2023-05-07T13:26:58;4.07;;;1.50;;
18090;SDS011;9172;49.948;9.208;2023-05-07T13:29:26;2.10;;;1.30;;
18090;SDS011;9172;49.948;9.208;2023-05-07T13:31:56;4.37;;;1.50;;
18090;SDS011;9172;49.948;9.208;2023-05-07T13:34:27;2.50;;;1.47;;
18090;SDS011;9172;49.948;9.208;2023-05-07T13:36:56;1.80;;;1.40;;
18090;SDS011;9172;49.948;9.208;2023-05-07T13:39:25;3.53;;;1.60;;
18090;SDS011;9172;49.948;9.208;2023-05-07T13:41:54;3.40;;;1.87;;
18090;SDS011;9172;49.948;9.208;2023-05-07T13:44:23;3.40;;;1.70;;
18090;SDS011;9172;49.948;9.208;2023-05-07T13:46:52;5.93;;;2.00;;
18090;SDS011;9172;49.948;9.208;2023-05-07T13:49:21;1.93;;;1.50;;
18090;SDS011;9172;49.948;9.208;2023-05-07T13:51:50;1.80;;;1.60;;
18090;SDS011;9172;49.948;9.208;2023-05-07T13:54:18;2.80;;;1.53;;
18090;SDS011;9172;49.948;9.208;2023-05-07T13:56:47;1.80;;;1.33;;
18090;SDS011;9172;49.948;9.208;2023-05-07T13:59:15;1.87;;;1.57;;
18090;SDS011;9172;49.948;9.208;2023-05-07T14:01:44;5.33;;;1.60;;
18090;SDS011;9172;49.948;9.208;2023-05-07T14:04:13;11.90;;;2.17;;
18090;SDS011;9172;49.948;9.208;2023-05-07T14:06:43;5.43;;;1.90;;
18090;SDS011;9172;49.948;9.208;2023-05-07T14:09:12;7.00;;;2.13;;
18090;SDS011;9172;49.948;9.208;2023-05-07T14:11:41;3.60;;;1.70;;
18090;SDS011;9172;49.948;9.208;2023-05-07T14:14:10;3.90;;;1.60;;
18090;SDS011;9172;49.948;9.208;2023-05-07T14:19:16;4.70;;;1.70;;
18090;SDS011;9172;49.948;9.208;2023-05-07T14:21:44;3.93;;;1.70;;
18090;SDS011;9172;49.948;9.208;2023-05-07T14:26:49;4.20;;;1.67;;
18090;SDS011;9172;49.948;9.208;2023-05-07T14:31:54;2.43;;;1.60;;
18090;SDS011;9172;49.948;9.208;2023-05-07T14:34:24;3.97;;;2.00;;
18090;SDS011;9172;49.948;9.208;2023-05-07T14:36:52;2.57;;;1.60;;
18090;SDS011;9172;49.948;9.208;2023-05-07T14:39:22;3.27;;;1.80;;
18090;SDS011;9172;49.948;9.208;2023-05-07T14:44:28;4.03;;;1.80;;
18090;SDS011;9172;49.948;9.208;2023-05-07T14:49:33;2.20;;;1.80;;
18090;SDS011;9172;49.948;9.208;2023-05-07T14:52:02;2.00;;;1.53;;
18090;SDS011;9172;49.948;9.208;2023-05-07T14:54:33;2.70;;;1.80;;
18090;SDS011;9172;49.948;9.208;2023-05-07T14:59:40;2.40;;;1.80;;
18090;SDS011;9172;49.948;9.208;2023-05-07T15:02:11;5.80;;;1.80;;
18090;SDS011;9172;49.948;9.208;2023-05-07T15:04:39;2.43;;;1.73;;
18090;SDS011;9172;49.948;9.208;2023-05-07T15:09:46;2.50;;;1.90;;
18090;SDS011;9172;49.948;9.208;2023-05-07T15:12:16;5.37;;;1.90;;
18090;SDS011;9172;49.948;9.208;2023-05-07T15:14:54;3.30;;;1.90;;
18090;SDS011;9172;49.948;9.208;2023-05-07T15:17:23;6.83;;;2.07;;
18090;SDS011;9172;49.948;9.208;2023-05-07T15:22:28;8.03;;;2.20;;
18090;SDS011;9172;49.948;9.208;2023-05-07T15:24:58;3.57;;;2.00;;
18090;SDS011;9172;49.948;9.208;2023-05-07T15:27:27;3.60;;;2.07;;
18090;SDS011;9172;49.948;9.208;2023-05-07T15:32:32;3.00;;;2.00;;
18090;SDS011;9172;49.948;9.208;2023-05-07T15:35:01;4.37;;;2.00;;
18090;SDS011;9172;49.948;9.208;2023-05-07T15:37:30;3.33;;;2.20;;
18090;SDS011;9172;49.948;9.208;2023-05-07T15:40:08;8.03;;;1.90;;
18090;SDS011;9172;49.948;9.208;2023-05-07T15:42:38;5.10;;;2.30;;
18090;SDS011;9172;49.948;9.208;2023-05-07T15:45:08;15.07;;;2.40;;
18090;SDS011;9172;49.948;9.208;2023-05-07T15:47:38;5.70;;;2.63;;
18090;SDS011;9172;49.948;9.208;2023-05-07T15:52:44;2.80;;;2.07;;
18090;SDS011;9172;49.948;9.208;2023-05-07T15:55:12;4.77;;;2.13;;